createdAt,value
2019-04-22T00:00:02.884Z,13.20
2019-04-22T00:02:42.282Z,13.20
2019-04-22T00:05:16.581Z,13.20
2019-04-22T00:08:01.545Z,13.10
2019-04-22T00:10:43.582Z,13.10
2019-04-22T00:13:12.635Z,13.10
2019-04-22T00:15:37.043Z,13.10
2019-04-22T00:20:51.813Z,13.00
2019-04-22T00:23:23.499Z,13.00
2019-04-22T00:25:55.796Z,12.90
2019-04-22T00:28:30.787Z,12.90
2019-04-22T00:31:05.050Z,12.90
2019-04-22T00:33:35.407Z,12.80
2019-04-22T00:36:14.990Z,12.80
2019-04-22T00:38:44.238Z,12.70
2019-04-22T00:41:15.229Z,12.70
2019-04-22T00:43:48.776Z,12.70
2019-04-22T00:46:18.860Z,12.70
2019-04-22T00:49:31.621Z,12.70
2019-04-22T00:51:22.914Z,12.60
2019-04-22T00:53:57.514Z,12.60
2019-04-22T00:56:22.105Z,12.60
2019-04-22T00:58:50.338Z,12.60
2019-04-22T01:01:31.957Z,12.50
2019-04-22T01:04:15.007Z,12.50
2019-04-22T01:06:35.250Z,12.50
2019-04-22T01:09:28.176Z,12.40
2019-04-22T01:11:37.586Z,12.40
2019-04-22T01:14:09.059Z,12.40
2019-04-22T01:16:43.027Z,12.40
2019-04-22T01:19:12.311Z,12.40
2019-04-22T01:21:45.153Z,12.30
2019-04-22T01:24:16.851Z,12.30
2019-04-22T01:26:47.675Z,12.30
2019-04-22T01:29:12.642Z,12.30
2019-04-22T01:31:34.316Z,12.30
2019-04-22T01:34:10.086Z,12.30
2019-04-22T01:36:51.614Z,12.20
2019-04-22T01:39:25.088Z,12.20
2019-04-22T01:42:04.639Z,12.20
2019-04-22T01:44:35.760Z,12.20
2019-04-22T01:47:00.394Z,12.10
2019-04-22T01:52:07.764Z,12.10
2019-04-22T01:54:35.690Z,12.10
2019-04-22T01:56:58.672Z,12.10
2019-04-22T01:59:25.893Z,12.00
2019-04-22T02:02:02.903Z,12.00
2019-04-22T02:04:36.821Z,12.00
2019-04-22T02:09:39.810Z,11.90
2019-04-22T02:12:11.585Z,11.90
2019-04-22T02:14:39.497Z,11.90
2019-04-22T02:17:10.795Z,11.80
2019-04-22T02:19:37.381Z,11.80
2019-04-22T02:22:11.629Z,11.80
2019-04-22T02:24:51.072Z,11.80
2019-04-22T02:29:43.208Z,11.70
2019-04-22T02:32:19.606Z,11.70
2019-04-22T02:35:02.202Z,11.70
2019-04-22T02:39:50.412Z,11.60
2019-04-22T02:44:48.628Z,11.50
2019-04-22T02:49:47.087Z,11.50
2019-04-22T02:54:58.532Z,11.40
2019-04-22T02:59:56.797Z,11.30
2019-04-22T03:04:55.621Z,11.10
2019-04-22T03:07:18.708Z,11.10
2019-04-22T03:09:55.111Z,11.00
2019-04-22T03:14:48.246Z,10.90
2019-04-22T03:22:25.911Z,10.80
2019-04-22T03:27:29.904Z,10.70
2019-04-22T03:47:52.899Z,10.30
2019-04-22T03:55:22.941Z,10.10
2019-04-22T04:00:35.695Z,10.00
2019-04-22T04:02:55.974Z,9.90
2019-04-22T04:05:33.538Z,9.80
2019-04-22T04:10:35.331Z,9.80
2019-04-22T04:12:58.182Z,9.70
2019-04-22T04:15:23.706Z,9.70
2019-04-22T04:20:28.688Z,9.60
2019-04-22T04:32:59.108Z,9.60
2019-04-22T04:36:03.395Z,9.60
2019-04-22T04:37:56.004Z,9.70
2019-04-22T04:40:31.523Z,9.70
2019-04-22T04:45:41.007Z,9.70
2019-04-22T04:48:21.133Z,9.80
2019-04-22T04:50:38.287Z,9.80
2019-04-22T04:53:20.291Z,9.90
2019-04-22T04:55:53.921Z,10.00
2019-04-22T04:58:36.886Z,10.00
2019-04-22T05:01:00.602Z,10.20
2019-04-22T05:03:32.810Z,10.30
2019-04-22T05:05:57.032Z,10.50
2019-04-22T05:08:39.155Z,10.60
2019-04-22T05:11:00.560Z,10.80
2019-04-22T05:13:35.141Z,11.00
2019-04-22T05:16:10.640Z,11.30
2019-04-22T05:21:14.646Z,11.80
2019-04-22T05:23:32.446Z,12.00
2019-04-22T05:25:57.427Z,12.30
2019-04-22T05:28:23.969Z,12.50
2019-04-22T05:30:57.182Z,12.60
2019-04-22T05:33:33.199Z,12.90
2019-04-22T05:35:56.332Z,13.20
2019-04-22T05:38:33.267Z,13.50
2019-04-22T05:40:56.378Z,13.70
2019-04-22T05:43:29.421Z,13.90
2019-04-22T05:46:00.775Z,14.10
2019-04-22T05:48:37.342Z,14.40
2019-04-22T05:50:57.711Z,14.60
2019-04-22T05:53:25.867Z,14.90
2019-04-22T05:56:03.959Z,15.20
2019-04-22T05:58:38.122Z,15.60
2019-04-22T06:01:29.347Z,15.60
2019-04-22T06:03:39.437Z,15.90
2019-04-22T06:06:12.620Z,16.10
2019-04-22T06:08:44.371Z,16.40
2019-04-22T06:11:18.451Z,16.70
2019-04-22T06:13:38.831Z,16.90
2019-04-22T06:16:09.212Z,17.10
2019-04-22T06:18:54.891Z,17.50
2019-04-22T06:21:22.562Z,17.70
2019-04-22T06:28:48.168Z,18.70
2019-04-22T06:33:54.775Z,19.40
2019-04-22T06:36:27.521Z,19.60
2019-04-22T06:38:49.937Z,19.90
2019-04-22T06:41:22.894Z,20.20
2019-04-22T06:43:58.467Z,20.40
2019-04-22T06:46:25.690Z,20.30
2019-04-22T06:48:52.752Z,20.40
2019-04-22T06:51:19.879Z,20.60
2019-04-22T06:53:59.080Z,20.70
2019-04-22T06:56:21.975Z,20.80
2019-04-22T06:58:55.142Z,21.00
2019-04-22T07:01:31.838Z,21.10
2019-04-22T07:04:01.538Z,21.60
2019-04-22T07:06:40.141Z,22.00
2019-04-22T07:11:30.727Z,22.60
2019-04-22T07:14:05.543Z,23.30
2019-04-22T07:19:02.187Z,23.60
2019-04-22T07:21:33.498Z,24.00
2019-04-22T07:24:21.480Z,24.20
2019-04-22T07:26:29.121Z,24.30
2019-04-22T07:29:06.216Z,24.50
2019-04-22T07:31:34.130Z,24.70
2019-04-22T07:34:16.422Z,24.90
2019-04-22T07:39:10.830Z,25.20
2019-04-22T07:41:39.978Z,25.30
2019-04-22T07:44:28.088Z,25.50
2019-04-22T07:46:43.055Z,25.50
2019-04-22T07:49:02.133Z,25.40
2019-04-22T07:51:41.102Z,25.30
2019-04-22T07:56:39.910Z,24.80
2019-04-22T07:59:13.859Z,25.00
2019-04-22T08:01:36.644Z,25.20
2019-04-22T08:04:32.112Z,25.10
2019-04-22T08:06:49.403Z,25.50
2019-04-22T08:09:18.111Z,25.50
2019-04-22T08:14:14.473Z,25.40
2019-04-22T08:21:47.396Z,24.60
2019-04-22T08:24:20.185Z,24.30
2019-04-22T08:26:49.787Z,24.10
2019-04-22T08:29:21.673Z,23.90
2019-04-22T08:31:49.187Z,23.50
2019-04-22T08:34:19.556Z,23.30
2019-04-22T08:37:12.249Z,23.20
2019-04-22T08:39:19.918Z,22.80
2019-04-22T08:41:43.532Z,22.30
2019-04-22T08:44:28.017Z,22.10
2019-04-22T08:46:56.178Z,21.90
2019-04-22T08:49:24.548Z,21.60
2019-04-22T08:51:49.441Z,21.40
2019-04-22T08:54:26.070Z,21.20
2019-04-22T08:56:55.535Z,20.90
2019-04-22T08:59:21.766Z,20.70
2019-04-22T09:01:53.452Z,20.30
2019-04-22T09:04:16.202Z,20.40
2019-04-22T09:09:28.444Z,20.00
2019-04-22T09:12:15.806Z,19.70
2019-04-22T09:14:32.431Z,19.70
2019-04-22T09:16:56.381Z,19.80
2019-04-22T09:19:28.428Z,19.80
2019-04-22T09:22:00.564Z,19.80
2019-04-22T09:24:29.665Z,19.70
2019-04-22T09:27:03.978Z,19.60
2019-04-22T09:29:34.147Z,19.50
2019-04-22T09:32:05.603Z,19.30
2019-04-22T09:34:33.684Z,19.20
2019-04-22T09:39:34.286Z,19.10
2019-04-22T09:42:07.902Z,19.00
2019-04-22T09:44:36.270Z,18.90
2019-04-22T09:47:06.183Z,18.90
2019-04-22T09:49:46.806Z,18.90
2019-04-22T09:52:02.967Z,18.90
2019-04-22T09:54:50.961Z,18.80
2019-04-22T09:57:09.220Z,18.80
2019-04-22T09:59:34.829Z,18.80
2019-04-22T10:02:19.600Z,18.80
2019-04-22T10:04:40.502Z,18.80
2019-04-22T10:07:13.847Z,18.80
2019-04-22T10:12:10.301Z,18.70
2019-04-22T10:17:08.837Z,18.70
2019-04-22T10:19:41.135Z,18.70
2019-04-22T10:24:43.209Z,18.70
2019-04-22T10:27:08.031Z,18.70
2019-04-22T10:29:48.478Z,18.60
2019-04-22T10:32:13.966Z,18.50
2019-04-22T10:34:31.281Z,18.50
2019-04-22T10:36:56.880Z,18.40
2019-04-22T10:39:32.845Z,18.30
2019-04-22T10:41:52.777Z,18.30
2019-04-22T10:44:21.542Z,18.30
2019-04-22T10:46:51.861Z,18.30
2019-04-22T10:49:22.291Z,18.20
2019-04-22T10:51:51.530Z,18.20
2019-04-22T10:54:21.346Z,18.10
2019-04-22T10:56:50.782Z,18.10
2019-04-22T10:59:20.620Z,18.00
2019-04-22T11:01:50.621Z,18.00
2019-04-22T11:04:19.647Z,18.00
2019-04-22T11:06:55.558Z,18.00
2019-04-22T11:09:22.090Z,17.90
2019-04-22T11:11:58.433Z,17.90
2019-04-22T11:14:21.068Z,18.00
2019-04-22T11:16:50.081Z,18.00
2019-04-22T11:19:19.435Z,18.00
2019-04-22T11:21:59.979Z,17.90
2019-04-22T11:24:18.916Z,17.90
2019-04-22T11:26:49.225Z,17.90
2019-04-22T11:29:19.565Z,17.90
2019-04-22T11:31:48.620Z,18.00
2019-04-22T11:34:17.408Z,18.00
2019-04-22T11:36:47.226Z,18.00
2019-04-22T11:39:17.009Z,18.00
2019-04-22T11:41:46.410Z,18.10
2019-04-22T11:44:17.055Z,18.00
2019-04-22T11:46:47.350Z,18.10
2019-04-22T11:49:16.416Z,18.10
2019-04-22T11:51:45.743Z,18.10
2019-04-22T11:54:14.781Z,18.20
2019-04-22T11:56:45.122Z,18.20
2019-04-22T11:59:15.075Z,18.20
2019-04-22T12:01:44.617Z,18.20
2019-04-22T12:04:13.829Z,18.20
2019-04-22T12:06:44.070Z,18.20
2019-04-22T12:09:15.359Z,18.30
2019-04-22T12:11:44.589Z,18.30
2019-04-22T12:14:13.956Z,18.30
2019-04-22T12:16:43.647Z,18.40
2019-04-22T12:19:15.658Z,18.40
2019-04-22T12:21:44.918Z,18.40
2019-04-22T12:24:15.058Z,18.40
2019-04-22T12:26:44.284Z,18.30
2019-04-22T12:29:13.335Z,18.40
2019-04-22T12:31:42.341Z,18.40
2019-04-22T12:34:11.366Z,18.40
2019-04-22T12:36:40.464Z,18.40
2019-04-22T12:39:11.435Z,18.30
2019-04-22T12:41:40.575Z,18.30
2019-04-22T12:44:09.654Z,18.40
2019-04-22T12:46:42.068Z,18.30
2019-04-22T12:49:12.194Z,18.30
2019-04-22T12:51:42.874Z,18.40
2019-04-22T12:54:13.132Z,18.40
2019-04-22T12:56:43.827Z,18.40
2019-04-22T12:59:13.997Z,18.40
2019-04-22T13:01:44.658Z,18.40
2019-04-22T13:04:17.273Z,18.40
2019-04-22T13:06:45.867Z,18.40
2019-04-22T13:09:17.614Z,18.40
2019-04-22T13:11:45.994Z,18.40
2019-04-22T13:14:15.067Z,18.50
2019-04-22T13:16:44.920Z,18.40
2019-04-22T13:19:17.104Z,18.50
2019-04-22T13:21:44.870Z,18.50
2019-04-22T13:24:15.349Z,18.50
2019-04-22T13:26:45.240Z,18.60
2019-04-22T13:29:15.064Z,18.60
2019-04-22T13:31:44.794Z,18.60
2019-04-22T13:34:21.396Z,18.60
2019-04-22T13:36:48.834Z,18.50
2019-04-22T13:39:20.879Z,18.50
2019-04-22T13:41:54.562Z,18.50
2019-04-22T13:44:21.057Z,18.50
2019-04-22T13:47:10.406Z,18.60
2019-04-22T13:49:49.469Z,18.60
2019-04-22T13:52:35.275Z,18.60
2019-04-22T13:57:14.822Z,18.70
2019-04-22T13:59:32.206Z,18.70
2019-04-22T14:02:24.324Z,18.70
2019-04-22T14:04:48.926Z,18.80
2019-04-22T14:07:19.002Z,18.80
2019-04-22T14:09:48.619Z,18.70
2019-04-22T14:12:18.377Z,18.80
2019-04-22T14:14:50.530Z,18.80
2019-04-22T14:17:18.888Z,18.80
2019-04-22T14:19:48.539Z,18.80
2019-04-22T14:22:17.932Z,18.80
2019-04-22T14:24:46.943Z,18.80
2019-04-22T14:27:28.022Z,18.80
2019-04-22T14:29:49.319Z,18.80
2019-04-22T14:34:49.038Z,18.80
2019-04-22T14:37:18.618Z,18.80
2019-04-22T14:39:48.197Z,18.80
2019-04-22T14:42:34.368Z,18.80
2019-04-22T14:44:12.632Z,18.80
2019-04-22T14:47:49.263Z,18.80
2019-04-22T14:50:14.475Z,18.80
2019-04-22T14:52:39.537Z,18.80
2019-04-22T14:55:02.885Z,18.80
2019-04-22T14:57:23.258Z,18.70
2019-04-22T14:59:53.613Z,18.70
2019-04-22T15:02:23.670Z,18.80
2019-04-22T15:04:54.229Z,18.80
2019-04-22T15:07:23.383Z,18.80
2019-04-22T15:09:52.792Z,18.80
2019-04-22T15:12:31.264Z,18.70
2019-04-22T15:14:53.398Z,18.70
2019-04-22T15:17:29.174Z,18.70
2019-04-22T15:20:03.701Z,18.70
2019-04-22T15:22:32.852Z,18.70
2019-04-22T15:25:02.982Z,18.60
2019-04-22T15:27:33.164Z,18.70
2019-04-22T15:30:03.526Z,18.60
2019-04-22T15:32:33.515Z,18.60
2019-04-22T15:35:02.753Z,18.60
2019-04-22T15:37:33.083Z,18.60
2019-04-22T15:40:02.877Z,18.50
2019-04-22T15:42:36.134Z,18.50
2019-04-22T15:45:05.340Z,18.40
2019-04-22T15:47:34.751Z,18.40
2019-04-22T15:50:05.970Z,18.40
2019-04-22T15:52:41.987Z,18.40
2019-04-22T15:55:06.743Z,18.40
2019-04-22T15:57:37.882Z,18.40
2019-04-22T16:00:22.385Z,18.40
2019-04-22T16:02:37.559Z,18.40
2019-04-22T16:05:06.805Z,18.30
2019-04-22T16:07:36.047Z,18.30
2019-04-22T16:10:05.941Z,18.30
2019-04-22T16:12:46.471Z,18.30
2019-04-22T16:15:09.567Z,18.30
2019-04-22T16:17:38.459Z,18.30
2019-04-22T16:20:09.017Z,18.30
2019-04-22T16:22:57.126Z,18.30
2019-04-22T16:25:45.494Z,18.20
2019-04-22T16:28:17.761Z,18.20
2019-04-22T16:30:46.813Z,18.20
2019-04-22T16:33:17.447Z,18.10
2019-04-22T16:35:48.959Z,18.10
2019-04-22T16:38:19.453Z,18.10
2019-04-22T16:40:52.627Z,18.10
2019-04-22T16:43:22.561Z,18.10
2019-04-22T16:45:51.961Z,18.00
2019-04-22T16:48:21.927Z,18.00
2019-04-22T16:50:52.813Z,17.90
2019-04-22T16:53:23.221Z,17.80
2019-04-22T16:55:52.977Z,17.80
2019-04-22T16:58:23.172Z,17.70
2019-04-22T17:00:52.506Z,17.60
2019-04-22T17:03:30.799Z,17.50
2019-04-22T17:06:23.404Z,17.40
2019-04-22T17:08:52.862Z,17.40
2019-04-22T17:11:22.258Z,17.30
2019-04-22T17:13:51.318Z,17.20
2019-04-22T17:16:20.560Z,17.10
2019-04-22T17:18:50.059Z,17.10
2019-04-22T17:21:19.675Z,17.00
2019-04-22T17:23:49.833Z,17.00
2019-04-22T17:26:19.064Z,16.90
2019-04-22T17:28:49.319Z,16.90
2019-04-22T17:31:18.879Z,16.80
2019-04-22T17:33:48.837Z,16.70
2019-04-22T17:36:18.537Z,16.60
2019-04-22T17:38:56.410Z,16.60
2019-04-22T17:41:30.267Z,16.50
2019-04-22T17:44:14.456Z,16.40
2019-04-22T17:46:40.275Z,16.40
2019-04-22T17:49:21.872Z,16.30
2019-04-22T17:52:10.792Z,16.30
2019-04-22T17:54:43.449Z,16.20
2019-04-22T17:57:10.005Z,16.10
2019-04-22T17:59:41.797Z,16.10
2019-04-22T18:02:13.350Z,16.00
2019-04-22T18:04:25.384Z,16.00
2019-04-22T18:07:24.553Z,15.80
2019-04-22T18:10:16.461Z,15.80
2019-04-22T18:12:27.119Z,15.80
2019-04-22T18:14:57.685Z,15.70
2019-04-22T18:17:17.339Z,15.60
2019-04-22T18:19:47.707Z,15.60
2019-04-22T18:22:13.620Z,15.50
2019-04-22T18:24:46.401Z,15.50
2019-04-22T18:27:34.727Z,15.40
2019-04-22T18:29:48.577Z,15.40
2019-04-22T18:32:16.801Z,15.40
2019-04-22T18:34:44.555Z,15.30
2019-04-22T18:37:22.328Z,15.20
2019-04-22T18:40:02.114Z,15.20
2019-04-22T18:42:25.669Z,15.10
2019-04-22T18:45:23.333Z,15.10
2019-04-22T18:47:37.156Z,15.00
2019-04-22T18:50:03.325Z,15.00
2019-04-22T18:53:07.094Z,14.90
2019-04-22T18:55:48.980Z,14.90
2019-04-22T18:58:21.443Z,14.90
2019-04-22T19:00:37.778Z,14.80
2019-04-22T19:03:16.487Z,14.70
2019-04-22T19:06:03.517Z,14.70
2019-04-22T19:08:34.626Z,14.60
2019-04-22T19:11:08.279Z,14.60
2019-04-22T19:18:41.532Z,14.50
2019-04-22T19:21:25.268Z,14.50
2019-04-22T19:23:59.765Z,14.50
2019-04-22T19:26:49.983Z,14.40
2019-04-22T19:29:25.978Z,14.40
2019-04-22T19:31:52.364Z,14.30
2019-04-22T19:34:20.488Z,14.30
2019-04-22T19:37:00.084Z,14.30
2019-04-22T19:39:26.190Z,14.30
2019-04-22T19:42:09.558Z,14.30
2019-04-22T19:44:41.178Z,14.20
2019-04-22T19:47:28.522Z,14.20
2019-04-22T19:49:48.078Z,14.20
2019-04-22T19:54:43.941Z,14.10
2019-04-22T19:57:08.159Z,14.10
2019-04-22T20:00:18.489Z,14.10
2019-04-22T20:03:15.731Z,14.10
2019-04-22T20:05:50.857Z,14.10
2019-04-22T20:08:21.502Z,14.00
2019-04-22T20:10:58.957Z,14.10
2019-04-22T20:13:37.250Z,14.00
2019-04-22T20:15:58.361Z,13.90
2019-04-22T20:21:18.262Z,13.90
2019-04-22T20:23:37.221Z,13.80
2019-04-22T20:26:13.604Z,13.80
2019-04-22T20:28:49.203Z,13.80
2019-04-22T20:31:24.649Z,13.70
2019-04-22T20:34:03.463Z,13.70
2019-04-22T20:36:49.089Z,13.70
2019-04-22T20:38:53.617Z,13.60
2019-04-22T20:41:24.959Z,13.60
2019-04-22T20:44:06.566Z,13.50
2019-04-22T20:46:36.238Z,13.50
2019-04-22T20:49:07.729Z,13.40
2019-04-22T20:51:50.224Z,13.40
2019-04-22T20:54:11.989Z,13.40
2019-04-22T20:56:44.072Z,13.30
2019-04-22T20:59:24.056Z,13.20
2019-04-22T21:01:55.202Z,13.20
2019-04-22T21:04:19.594Z,13.10
2019-04-22T21:06:58.323Z,13.00
2019-04-22T21:09:35.421Z,13.00
2019-04-22T21:11:59.110Z,13.00
2019-04-22T21:14:28.631Z,13.00
2019-04-22T21:17:09.616Z,12.90
2019-04-22T21:19:41.407Z,12.90
2019-04-22T21:22:16.466Z,12.90
2019-04-22T21:24:42.150Z,12.80
2019-04-22T21:27:13.981Z,12.80
2019-04-22T21:29:38.766Z,12.80
2019-04-22T21:32:15.944Z,12.70
2019-04-22T21:34:59.639Z,12.60
2019-04-22T21:37:25.080Z,12.70
2019-04-22T21:39:46.307Z,12.60
2019-04-22T21:42:22.570Z,12.60
2019-04-22T21:44:51.151Z,12.60
2019-04-22T21:47:50.166Z,12.50
2019-04-22T21:50:19.660Z,12.50
2019-04-22T21:52:27.608Z,12.50
2019-04-22T21:55:07.538Z,12.40
2019-04-22T21:57:46.159Z,12.40
2019-04-22T22:00:25.131Z,12.40
2019-04-22T22:02:45.635Z,12.30
2019-04-22T22:05:12.527Z,12.40
2019-04-22T22:07:32.872Z,12.30
2019-04-22T22:10:22.866Z,12.20
2019-04-22T22:12:56.877Z,12.20
2019-04-22T22:15:25.862Z,12.20
2019-04-22T22:17:54.498Z,12.20
2019-04-22T22:20:22.704Z,12.20
2019-04-22T22:23:09.126Z,12.10
2019-04-22T22:25:35.016Z,12.00
2019-04-22T22:28:17.043Z,12.10
2019-04-22T22:33:15.384Z,12.00
2019-04-22T22:35:45.564Z,12.10
2019-04-22T22:38:20.574Z,12.00
2019-04-22T22:40:30.617Z,12.00
2019-04-22T22:43:05.416Z,12.00
2019-04-22T22:45:39.277Z,12.00
2019-04-22T22:48:28.183Z,12.00
2019-04-22T22:50:50.794Z,11.90
2019-04-22T22:55:50.654Z,11.90
2019-04-22T22:58:29.215Z,12.00
2019-04-22T23:00:53.577Z,11.90
2019-04-22T23:03:49.817Z,11.90
2019-04-22T23:06:03.225Z,11.80
2019-04-22T23:08:31.122Z,11.80
2019-04-22T23:11:27.388Z,11.80
2019-04-22T23:13:49.491Z,11.80
2019-04-22T23:15:57.273Z,11.80
2019-04-22T23:18:14.012Z,11.80
2019-04-22T23:20:47.661Z,11.80
2019-04-22T23:23:33.224Z,11.70
2019-04-22T23:26:17.177Z,11.80
2019-04-22T23:28:53.523Z,11.70
2019-04-22T23:31:23.627Z,11.80
2019-04-22T23:34:01.052Z,11.80
2019-04-22T23:37:11.837Z,11.80
2019-04-22T23:39:56.461Z,11.80
2019-04-22T23:44:49.623Z,11.80
2019-04-22T23:47:30.955Z,11.80
2019-04-22T23:50:09.105Z,11.80
2019-04-22T23:52:58.854Z,11.80
2019-04-22T23:55:38.411Z,11.90
2019-04-22T23:58:11.929Z,11.90
